createdAt,value
2019-05-21T00:00:17.849Z,15.90
2019-05-21T00:02:48.193Z,15.90
2019-05-21T00:05:19.556Z,15.90
2019-05-21T00:07:49.948Z,15.80
2019-05-21T00:10:20.272Z,15.80
2019-05-21T00:12:50.569Z,15.80
2019-05-21T00:15:20.913Z,15.80
2019-05-21T00:17:51.340Z,15.80
2019-05-21T00:20:21.635Z,15.80
2019-05-21T00:22:51.965Z,15.80
2019-05-21T00:25:22.251Z,15.70
2019-05-21T00:27:52.667Z,15.80
2019-05-21T00:31:00.997Z,15.70
2019-05-21T00:34:07.399Z,15.70
2019-05-21T00:37:19.786Z,15.80
2019-05-21T00:40:26.137Z,15.70
2019-05-21T00:42:57.036Z,15.70
2019-05-21T00:45:27.377Z,15.70
2019-05-21T00:47:57.680Z,15.70
2019-05-21T00:50:28.037Z,15.70
2019-05-21T00:52:58.338Z,15.70
2019-05-21T00:55:28.695Z,15.70
2019-05-21T00:57:59.081Z,15.70
2019-05-21T01:00:29.932Z,15.70
2019-05-21T01:03:00.231Z,15.70
2019-05-21T01:05:30.549Z,15.70
2019-05-21T01:08:00.972Z,15.70
2019-05-21T01:10:31.317Z,15.70
2019-05-21T01:13:01.649Z,15.70
2019-05-21T01:15:32.007Z,15.70
2019-05-21T01:18:02.296Z,15.70
2019-05-21T01:20:32.662Z,15.70
2019-05-21T01:23:02.970Z,15.70
2019-05-21T01:25:33.316Z,15.70
2019-05-21T01:28:03.632Z,15.70
2019-05-21T01:30:34.583Z,15.70
2019-05-21T01:33:04.915Z,15.70
2019-05-21T01:35:35.200Z,15.70
2019-05-21T01:38:05.481Z,15.70
2019-05-21T01:40:35.814Z,15.70
2019-05-21T01:43:06.108Z,15.70
2019-05-21T01:45:36.517Z,15.70
2019-05-21T01:48:06.834Z,15.60
2019-05-21T01:50:37.196Z,15.70
2019-05-21T01:53:07.525Z,15.60
2019-05-21T01:55:37.852Z,15.60
2019-05-21T01:58:08.160Z,15.60
2019-05-21T02:00:38.501Z,15.70
2019-05-21T02:03:08.818Z,15.60
2019-05-21T02:05:39.157Z,15.70
2019-05-21T02:08:09.485Z,15.70
2019-05-21T02:10:39.855Z,15.70
2019-05-21T02:13:11.218Z,15.70
2019-05-21T02:15:41.562Z,15.70
2019-05-21T02:18:11.953Z,15.70
2019-05-21T02:20:42.311Z,15.70
2019-05-21T02:23:12.677Z,15.70
2019-05-21T02:25:43.036Z,15.60
2019-05-21T02:28:13.449Z,15.60
2019-05-21T02:30:44.568Z,15.70
2019-05-21T02:33:14.941Z,15.70
2019-05-21T02:35:54.409Z,15.70
2019-05-21T02:38:17.226Z,15.70
2019-05-21T02:40:47.527Z,15.70
2019-05-21T02:43:17.893Z,15.70
2019-05-21T02:45:48.291Z,15.70
2019-05-21T02:48:19.636Z,15.70
2019-05-21T02:50:49.982Z,15.70
2019-05-21T02:53:20.346Z,15.70
2019-05-21T02:55:50.724Z,15.70
2019-05-21T02:58:21.116Z,15.70
2019-05-21T03:00:59.238Z,15.70
2019-05-21T03:03:30.689Z,15.70
2019-05-21T03:06:13.357Z,15.70
2019-05-21T03:08:33.001Z,15.70
2019-05-21T03:11:03.341Z,15.70
2019-05-21T03:13:33.880Z,15.70
2019-05-21T03:16:04.219Z,15.70
2019-05-21T03:18:34.567Z,15.80
2019-05-21T03:21:04.847Z,15.70
2019-05-21T03:23:35.158Z,15.70
2019-05-21T03:26:05.486Z,15.70
2019-05-21T03:28:35.805Z,15.70
2019-05-21T03:31:07.307Z,15.70
2019-05-21T03:33:37.970Z,15.70
2019-05-21T03:36:08.289Z,15.70
2019-05-21T03:38:38.616Z,15.70
2019-05-21T03:41:10.294Z,15.80
2019-05-21T03:43:40.666Z,15.80
2019-05-21T03:46:10.990Z,15.90
2019-05-21T03:48:41.408Z,15.90
2019-05-21T03:51:12.034Z,16.00
2019-05-21T03:53:42.414Z,16.00
2019-05-21T03:56:31.788Z,16.10
2019-05-21T03:59:02.182Z,16.10
2019-05-21T04:01:33.544Z,16.20
2019-05-21T04:04:03.900Z,16.20
2019-05-21T04:06:50.618Z,16.30
2019-05-21T04:09:07.738Z,16.30
2019-05-21T04:11:38.067Z,16.30
2019-05-21T04:14:08.469Z,16.40
2019-05-21T04:16:57.324Z,16.40
2019-05-21T04:19:31.777Z,16.40
2019-05-21T04:22:02.137Z,16.50
2019-05-21T04:24:32.451Z,16.40
2019-05-21T04:27:02.794Z,16.50
2019-05-21T04:29:33.130Z,16.60
2019-05-21T04:32:03.463Z,16.50
2019-05-21T04:34:33.750Z,16.50
2019-05-21T04:37:10.524Z,16.60
2019-05-21T04:39:55.134Z,16.60
2019-05-21T04:42:25.459Z,16.60
2019-05-21T04:44:55.798Z,16.60
2019-05-21T04:47:26.122Z,16.60
2019-05-21T04:49:56.495Z,16.60
2019-05-21T04:52:26.806Z,16.70
2019-05-21T04:54:57.171Z,16.70
2019-05-21T04:57:27.488Z,16.70
2019-05-21T04:59:57.993Z,16.70
2019-05-21T05:02:29.765Z,16.80
2019-05-21T05:05:00.141Z,16.80
2019-05-21T05:07:30.433Z,16.80
2019-05-21T05:10:00.834Z,16.90
2019-05-21T05:12:31.188Z,16.90
2019-05-21T05:15:01.477Z,17.00
2019-05-21T05:17:31.825Z,17.10
2019-05-21T05:20:03.283Z,17.20
2019-05-21T05:22:33.610Z,17.30
2019-05-21T05:25:04.007Z,17.40
2019-05-21T05:27:34.328Z,17.40
2019-05-21T05:30:06.206Z,17.60
2019-05-21T05:32:36.649Z,17.70
2019-05-21T05:35:07.427Z,17.90
2019-05-21T05:37:44.220Z,18.00
2019-05-21T05:40:10.298Z,18.40
2019-05-21T05:42:40.661Z,18.70
2019-05-21T05:45:11.661Z,18.90
2019-05-21T05:47:42.003Z,18.90
2019-05-21T05:50:14.375Z,18.80
2019-05-21T05:52:44.817Z,18.70
2019-05-21T05:55:16.007Z,18.70
2019-05-21T05:57:46.350Z,18.70
2019-05-21T06:00:17.358Z,18.70
2019-05-21T06:02:47.755Z,18.70
2019-05-21T06:05:18.186Z,18.70
2019-05-21T06:07:59.355Z,18.80
2019-05-21T06:10:22.009Z,18.90
2019-05-21T06:12:52.322Z,19.00
2019-05-21T06:15:22.716Z,19.10
2019-05-21T06:17:53.082Z,19.10
2019-05-21T06:20:23.799Z,19.10
2019-05-21T06:22:54.161Z,19.20
2019-05-21T06:25:25.695Z,19.20
2019-05-21T06:27:56.033Z,19.20
2019-05-21T06:30:26.355Z,19.20
2019-05-21T06:32:56.932Z,19.20
2019-05-21T06:35:27.285Z,19.30
2019-05-21T06:37:57.683Z,19.30
2019-05-21T06:40:28.051Z,19.40
2019-05-21T06:42:58.443Z,19.50
2019-05-21T06:45:28.804Z,19.60
2019-05-21T06:47:59.112Z,19.80
2019-05-21T06:50:29.478Z,20.00
2019-05-21T06:52:59.895Z,20.20
2019-05-21T06:55:30.348Z,20.50
2019-05-21T06:58:00.649Z,20.70
2019-05-21T07:00:30.999Z,20.90
2019-05-21T07:03:01.452Z,21.00
2019-05-21T07:05:31.778Z,21.30
2019-05-21T07:08:02.204Z,21.50
2019-05-21T07:10:32.535Z,21.80
2019-05-21T07:13:02.868Z,22.00
2019-05-21T07:15:33.218Z,22.10
2019-05-21T07:18:03.570Z,22.20
2019-05-21T07:20:33.865Z,22.40
2019-05-21T07:23:04.705Z,22.60
2019-05-21T07:25:35.105Z,22.80
2019-05-21T07:28:05.474Z,23.00
2019-05-21T07:30:35.938Z,23.10
2019-05-21T07:33:06.877Z,23.60
2019-05-21T07:35:37.632Z,24.70
2019-05-21T07:38:07.994Z,25.50
2019-05-21T07:40:38.373Z,25.80
2019-05-21T07:43:08.703Z,25.90
2019-05-21T07:45:39.027Z,26.30
2019-05-21T07:48:09.331Z,26.80
2019-05-21T07:50:39.657Z,27.50
2019-05-21T07:53:09.939Z,28.90
2019-05-21T07:55:40.314Z,30.50
2019-05-21T07:58:11.702Z,31.90
2019-05-21T08:00:42.027Z,32.60
2019-05-21T08:03:13.721Z,32.70
2019-05-21T08:05:44.595Z,33.60
2019-05-21T08:08:14.871Z,34.70
2019-05-21T08:10:45.202Z,34.80
2019-05-21T08:13:15.528Z,34.60
2019-05-21T08:15:45.866Z,34.30
2019-05-21T08:18:16.205Z,34.90
2019-05-21T08:20:46.636Z,35.80
2019-05-21T09:04:46.696Z,32.70
2019-05-21T09:07:15.318Z,32.40
2019-05-21T09:09:50.556Z,32.30
2019-05-21T09:12:17.688Z,32.30
2019-05-21T09:29:44.537Z,30.70
2019-05-21T09:32:14.889Z,29.90
2019-05-21T09:34:49.104Z,29.40
2019-05-21T09:37:39.669Z,28.80
2019-05-21T09:40:11.585Z,28.10
2019-05-21T09:43:03.565Z,27.50
2019-05-21T09:45:33.971Z,27.00
2019-05-21T09:48:04.485Z,26.70
2019-05-21T09:50:34.758Z,26.40
2019-05-21T09:53:05.111Z,26.30
2019-05-21T09:55:35.452Z,26.00
2019-05-21T09:58:34.292Z,25.70
2019-05-21T10:01:21.672Z,25.40
2019-05-21T10:03:55.767Z,25.10
2019-05-21T10:06:26.147Z,24.90
2019-05-21T10:08:56.518Z,24.70
2019-05-21T10:11:26.801Z,24.60
2019-05-21T10:13:57.140Z,24.40
2019-05-21T10:16:27.496Z,24.40
2019-05-21T10:18:57.906Z,24.40
2019-05-21T10:21:28.242Z,24.40
2019-05-21T10:23:58.577Z,24.40
2019-05-21T10:26:28.979Z,24.60
2019-05-21T10:28:59.414Z,24.60
2019-05-21T10:31:29.718Z,24.60
2019-05-21T10:34:00.107Z,24.70
2019-05-21T10:36:30.427Z,24.80
2019-05-21T10:39:00.790Z,24.80
2019-05-21T10:41:32.772Z,24.70
2019-05-21T10:44:03.251Z,24.60
2019-05-21T10:46:33.591Z,24.50
2019-05-21T10:49:03.896Z,24.50
2019-05-21T10:51:34.247Z,24.70
2019-05-21T10:54:05.237Z,24.80
2019-05-21T10:56:47.458Z,25.00
2019-05-21T10:59:07.734Z,25.00
2019-05-21T11:01:51.047Z,25.50
2019-05-21T11:04:31.983Z,25.70
2019-05-21T11:07:02.422Z,25.80
2019-05-21T11:09:32.810Z,26.00
2019-05-21T11:12:03.186Z,26.30
2019-05-21T11:14:33.643Z,26.40
2019-05-21T11:17:05.037Z,26.20
2019-05-21T11:19:35.633Z,26.00
2019-05-21T11:22:06.001Z,26.00
2019-05-21T11:24:36.337Z,26.10
2019-05-21T11:27:06.888Z,26.20
2019-05-21T11:29:38.102Z,26.30
2019-05-21T11:32:08.481Z,26.40
2019-05-21T11:34:38.877Z,26.50
2019-05-21T11:37:31.104Z,26.60
2019-05-21T11:40:14.993Z,26.60
2019-05-21T11:45:53.174Z,26.50
2019-05-21T11:48:23.549Z,26.50
2019-05-21T11:50:53.921Z,26.40
2019-05-21T11:53:24.241Z,26.30
2019-05-21T11:55:54.653Z,26.40
2019-05-21T11:58:49.359Z,26.30
2019-05-21T12:01:20.610Z,26.30
2019-05-21T12:03:50.915Z,26.10
2019-05-21T12:06:21.393Z,25.80
2019-05-21T12:08:56.781Z,25.60
2019-05-21T12:11:23.782Z,25.20
2019-05-21T12:13:54.370Z,24.50
2019-05-21T12:16:24.711Z,23.80
2019-05-21T12:18:55.027Z,23.30
2019-05-21T12:21:25.369Z,22.80
2019-05-21T12:23:55.700Z,22.40
2019-05-21T12:26:26.036Z,22.20
2019-05-21T12:28:56.393Z,22.00
2019-05-21T12:31:27.341Z,21.90
2019-05-21T12:33:57.707Z,21.90
2019-05-21T12:36:28.100Z,21.90
2019-05-21T12:39:13.072Z,21.80
2019-05-21T12:41:31.940Z,21.80
2019-05-21T12:44:02.245Z,21.70
2019-05-21T12:46:32.601Z,21.80
2019-05-21T12:49:03.026Z,21.80
2019-05-21T12:51:33.977Z,21.80
2019-05-21T12:54:04.286Z,21.90
2019-05-21T12:56:34.601Z,21.90
2019-05-21T12:59:04.913Z,22.00
2019-05-21T13:01:36.823Z,22.20
2019-05-21T13:04:07.160Z,22.20
2019-05-21T13:06:37.529Z,22.30
2019-05-21T13:09:08.576Z,22.30
2019-05-21T13:11:39.013Z,22.30
2019-05-21T13:14:09.404Z,22.40
2019-05-21T13:16:39.601Z,22.30
2019-05-21T13:19:11.267Z,22.20
2019-05-21T13:21:42.860Z,22.30
2019-05-21T13:24:13.256Z,22.40
2019-05-21T13:26:43.641Z,22.40
2019-05-21T13:29:14.028Z,22.40
2019-05-21T13:31:45.727Z,22.50
2019-05-21T13:34:16.059Z,22.40
2019-05-21T13:36:46.469Z,22.40
2019-05-21T13:39:16.959Z,22.50
2019-05-21T13:41:47.258Z,22.50
2019-05-21T13:44:17.707Z,22.70
2019-05-21T13:46:48.049Z,22.80
2019-05-21T13:49:18.353Z,22.90
2019-05-21T13:51:48.711Z,23.00
2019-05-21T13:54:19.005Z,23.10
2019-05-21T13:56:49.390Z,23.20
2019-05-21T13:59:19.802Z,23.20
2019-05-21T14:01:50.286Z,23.10
2019-05-21T14:04:21.921Z,23.20
2019-05-21T14:06:52.294Z,23.20
2019-05-21T14:09:22.619Z,23.10
2019-05-21T14:11:53.007Z,23.00
2019-05-21T14:14:24.427Z,23.00
2019-05-21T14:16:54.719Z,22.90
2019-05-21T14:19:25.061Z,22.90
2019-05-21T14:21:55.392Z,22.80
2019-05-21T14:24:27.845Z,22.70
2019-05-21T14:26:58.255Z,22.70
2019-05-21T14:29:28.587Z,22.70
2019-05-21T14:31:58.938Z,22.60
2019-05-21T14:34:30.677Z,22.60
2019-05-21T14:37:01.027Z,22.50
2019-05-21T14:39:31.435Z,22.50
2019-05-21T14:42:02.809Z,22.40
2019-05-21T14:44:33.211Z,22.40
2019-05-21T14:47:03.522Z,22.50
2019-05-21T14:49:33.896Z,22.60
2019-05-21T14:52:04.407Z,22.80
2019-05-21T14:54:34.813Z,23.00
2019-05-21T14:57:10.488Z,23.10
2019-05-21T14:59:41.081Z,23.20
2019-05-21T15:02:11.419Z,23.20
2019-05-21T15:04:42.082Z,23.30
2019-05-21T15:07:12.905Z,23.30
2019-05-21T15:09:43.349Z,23.40
2019-05-21T15:12:13.668Z,23.30
2019-05-21T15:14:44.058Z,23.30
2019-05-21T15:17:15.095Z,23.20
2019-05-21T15:19:47.615Z,23.20
2019-05-21T15:22:17.945Z,23.20
2019-05-21T15:24:48.345Z,23.30
2019-05-21T15:27:18.686Z,23.30
2019-05-21T15:29:49.014Z,23.30
2019-05-21T15:32:38.363Z,23.30
2019-05-21T15:35:09.811Z,23.40
2019-05-21T15:37:40.143Z,23.40
2019-05-21T15:40:10.697Z,23.40
2019-05-21T15:42:41.082Z,23.30
2019-05-21T15:45:11.654Z,23.20
2019-05-21T15:47:42.062Z,23.10
2019-05-21T15:50:12.473Z,23.00
2019-05-21T15:52:42.920Z,22.90
2019-05-21T15:55:13.717Z,22.90
2019-05-21T15:57:44.176Z,22.80
2019-05-21T16:00:15.209Z,22.70
2019-05-21T16:02:45.567Z,22.70
2019-05-21T16:05:33.787Z,22.70
2019-05-21T16:08:04.374Z,22.60
2019-05-21T16:10:35.645Z,22.60
2019-05-21T16:13:06.051Z,22.60
2019-05-21T16:15:36.434Z,22.60
2019-05-21T16:18:07.853Z,22.60
2019-05-21T16:20:38.197Z,22.60
2019-05-21T16:23:08.685Z,22.60
2019-05-21T16:25:39.032Z,22.60
2019-05-21T16:28:09.333Z,22.50
2019-05-21T16:30:39.711Z,22.40
2019-05-21T16:33:10.071Z,22.40
2019-05-21T16:35:40.520Z,22.30
2019-05-21T16:38:10.893Z,22.20
2019-05-21T16:40:42.317Z,22.20
2019-05-21T16:43:12.674Z,22.20
2019-05-21T16:45:42.972Z,22.10
2019-05-21T16:48:13.324Z,21.90
2019-05-21T16:50:43.612Z,21.90
2019-05-21T16:53:13.937Z,21.80
2019-05-21T16:55:44.343Z,21.80
2019-05-21T16:58:14.718Z,21.70
2019-05-21T17:00:45.120Z,21.60
2019-05-21T17:03:15.490Z,21.50
2019-05-21T17:05:45.780Z,21.50
2019-05-21T17:08:16.145Z,21.40
2019-05-21T17:10:46.445Z,21.30
2019-05-21T17:13:16.832Z,21.20
2019-05-21T17:15:47.205Z,21.10
2019-05-21T17:21:18.401Z,20.90
2019-05-21T17:23:48.701Z,20.80
2019-05-21T17:26:20.550Z,20.70
2019-05-21T17:28:51.042Z,20.70
2019-05-21T17:31:21.430Z,20.70
2019-05-21T17:33:52.289Z,20.60
2019-05-21T17:36:23.675Z,20.60
2019-05-21T17:38:54.028Z,20.50
2019-05-21T17:41:24.441Z,20.50
2019-05-21T17:43:54.744Z,20.40
2019-05-21T17:46:25.091Z,20.40
2019-05-21T17:48:55.389Z,20.30
2019-05-21T17:51:25.746Z,20.40
2019-05-21T17:53:56.103Z,20.40
2019-05-21T17:56:26.510Z,20.20
2019-05-21T17:58:56.804Z,20.10
2019-05-21T18:01:27.923Z,20.10
2019-05-21T18:03:59.221Z,20.10
2019-05-21T18:06:31.158Z,20.00
2019-05-21T18:09:01.888Z,19.90
2019-05-21T18:11:33.743Z,19.90
2019-05-21T18:14:04.557Z,19.90
2019-05-21T18:16:35.201Z,19.80
2019-05-21T18:19:08.433Z,19.80
2019-05-21T18:21:38.177Z,19.70
2019-05-21T18:24:08.537Z,19.60
2019-05-21T18:26:39.622Z,19.50
2019-05-21T18:29:10.043Z,19.40
2019-05-21T18:31:40.757Z,19.40
2019-05-21T18:34:11.119Z,19.30
2019-05-21T18:36:41.447Z,19.30
2019-05-21T18:39:12.761Z,19.20
2019-05-21T18:41:43.205Z,19.10
2019-05-21T18:44:13.585Z,19.10
2019-05-21T18:46:43.989Z,19.00
2019-05-21T18:49:15.449Z,19.00
2019-05-21T18:51:45.843Z,18.90
2019-05-21T18:54:16.398Z,18.80
2019-05-21T18:56:46.752Z,18.80
2019-05-21T18:59:17.213Z,18.80
2019-05-21T19:01:47.598Z,18.70
2019-05-21T19:04:17.932Z,18.60
2019-05-21T19:06:49.005Z,18.60
2019-05-21T19:09:19.347Z,18.50
2019-05-21T19:11:49.708Z,18.50
2019-05-21T19:14:20.119Z,18.40
2019-05-21T19:16:50.513Z,18.30
2019-05-21T19:19:20.987Z,18.20
2019-05-21T19:21:51.415Z,18.20
2019-05-21T19:24:21.877Z,18.10
2019-05-21T19:26:52.203Z,18.00
2019-05-21T19:29:22.634Z,18.00
2019-05-21T19:31:53.027Z,17.90
2019-05-21T19:34:24.550Z,17.90
2019-05-21T19:36:57.036Z,17.80
2019-05-21T19:39:27.915Z,17.80
2019-05-21T19:41:58.673Z,17.70
2019-05-21T19:44:29.417Z,17.60
2019-05-21T19:46:59.780Z,17.50
2019-05-21T19:49:31.188Z,17.40
2019-05-21T19:52:03.103Z,17.40
2019-05-21T19:54:33.659Z,17.30
2019-05-21T19:57:04.958Z,17.30
2019-05-21T19:59:35.732Z,17.20
2019-05-21T20:02:11.184Z,17.10
2019-05-21T20:04:42.869Z,17.00
2019-05-21T20:07:17.359Z,17.00
2019-05-21T20:09:48.653Z,16.90
2019-05-21T20:12:20.448Z,16.90
2019-05-21T20:14:50.919Z,16.80
2019-05-21T20:17:22.494Z,16.70
2019-05-21T20:19:56.131Z,16.60
2019-05-21T20:22:27.807Z,16.60
2019-05-21T20:24:58.623Z,16.50
2019-05-21T20:27:30.513Z,16.50
2019-05-21T20:30:12.403Z,16.50
2019-05-21T20:32:39.033Z,16.40
2019-05-21T20:35:11.299Z,16.40
2019-05-21T20:37:44.185Z,16.30
2019-05-21T20:40:15.671Z,16.20
2019-05-21T20:42:47.487Z,16.10
2019-05-21T20:45:19.349Z,16.10
2019-05-21T20:47:52.241Z,16.10
2019-05-21T20:50:23.229Z,16.00
2019-05-21T20:52:53.950Z,16.00
2019-05-21T20:55:28.207Z,16.00
2019-05-21T20:57:58.717Z,16.00
2019-05-21T21:00:38.646Z,15.90
2019-05-21T21:03:11.780Z,15.90
2019-05-21T21:05:43.215Z,15.90
2019-05-21T21:08:14.900Z,15.80
2019-05-21T21:10:45.742Z,15.80
2019-05-21T21:13:16.860Z,15.70
2019-05-21T21:15:49.461Z,15.70
2019-05-21T21:18:20.135Z,15.60
2019-05-21T21:20:50.719Z,15.60
2019-05-21T21:23:24.912Z,15.50
2019-05-21T21:25:55.797Z,15.50
2019-05-21T21:28:26.323Z,15.50
2019-05-21T21:30:58.744Z,15.40
2019-05-21T21:33:30.749Z,15.40
2019-05-21T21:36:01.592Z,15.40
2019-05-21T21:38:34.398Z,15.30
2019-05-21T21:41:05.160Z,15.30
2019-05-21T21:43:35.721Z,15.30
2019-05-21T21:46:06.533Z,15.20
2019-05-21T21:48:37.260Z,15.20
2019-05-21T21:51:08.435Z,15.20
2019-05-21T21:53:40.894Z,15.10
2019-05-21T21:56:11.374Z,15.10
2019-05-21T21:58:42.683Z,15.10
2019-05-21T22:01:47.296Z,15.10
2019-05-21T22:04:27.972Z,15.00
2019-05-21T22:07:00.069Z,15.00
2019-05-21T22:09:33.641Z,14.90
2019-05-21T22:12:12.867Z,14.90
2019-05-21T22:14:51.837Z,14.90
2019-05-21T22:17:17.437Z,14.90
2019-05-21T22:19:48.383Z,14.80
2019-05-21T22:22:19.741Z,14.80
2019-05-21T22:24:50.901Z,14.80
2019-05-21T22:27:22.087Z,14.80
2019-05-21T22:29:53.785Z,14.80
2019-05-21T22:32:25.425Z,14.70
2019-05-21T22:34:56.177Z,14.70
2019-05-21T22:37:28.104Z,14.70
2019-05-21T22:39:58.507Z,14.70
2019-05-21T22:42:29.579Z,14.60
2019-05-21T22:45:07.935Z,14.60
2019-05-21T22:47:33.349Z,14.60
2019-05-21T22:50:03.793Z,14.60
2019-05-21T22:52:34.543Z,14.60
2019-05-21T22:55:05.411Z,14.50
2019-05-21T22:57:36.125Z,14.50
2019-05-21T23:00:07.091Z,14.50
2019-05-21T23:02:39.273Z,14.50
2019-05-21T23:05:10.251Z,14.50
2019-05-21T23:07:42.891Z,14.50
2019-05-21T23:10:14.265Z,14.40
2019-05-21T23:12:46.015Z,14.40
2019-05-21T23:15:24.830Z,14.40
2019-05-21T23:18:07.329Z,14.40
2019-05-21T23:20:43.494Z,14.30
2019-05-21T23:23:15.123Z,14.30
2019-05-21T23:25:46.137Z,14.30
2019-05-21T23:28:16.627Z,14.30
2019-05-21T23:30:48.075Z,14.20
2019-05-21T23:33:20.176Z,14.20
2019-05-21T23:35:51.083Z,14.20
2019-05-21T23:38:21.839Z,14.20
2019-05-21T23:40:53.673Z,14.10
2019-05-21T23:43:24.451Z,14.10
2019-05-21T23:45:55.095Z,14.00
2019-05-21T23:48:26.439Z,14.10
2019-05-21T23:50:57.023Z,14.00
2019-05-21T23:53:27.985Z,14.00
2019-05-21T23:55:58.471Z,13.90
2019-05-21T23:58:30.035Z,14.00
